Time;durP1;ratioP1;P1;durP2;ratioP2;P2;SDS_P1;SDS_P2;PMS_P1;PMS_P2;Temp;Humidity;BMP_temperature;BMP_pressure;BME280_temperature;BME280_humidity;BME280_pressure;Samples;Min_cycle;Max_cycle;Signal;HPM_P1;HPM_P2
2022/09/02 00:01:14;;;;;;;3.75;1.35;;;23.20;57.20;;;;;;4460277;32;20283;-74
2022/09/02 00:03:40;;;;;;;5.28;1.63;;;23.20;57.20;;;;;;4460322;32;20073;-74
2022/09/02 00:06:06;;;;;;;4.07;1.40;;;23.20;57.20;;;;;;4459889;32;20108;-74
2022/09/02 00:08:32;;;;;;;3.10;1.27;;;23.20;57.20;;;;;;4446370;32;20097;-74
2022/09/02 00:11:00;;;;;;;5.10;1.27;;;23.20;57.10;;;;;;4460476;32;20231;-75
2022/09/02 00:13:27;;;;;;;5.32;1.30;;;23.20;57.20;;;;;;4460023;32;20085;-74
2022/09/02 00:15:54;;;;;;;4.53;1.20;;;23.20;57.10;;;;;;4459952;32;20078;-74
2022/09/02 00:18:20;;;;;;;4.15;1.20;;;23.10;57.00;;;;;;4460412;32;20175;-74
2022/09/02 00:20:47;;;;;;;4.13;1.20;;;23.10;57.10;;;;;;4446282;32;20510;-74
2022/09/02 00:23:15;;;;;;;3.50;1.00;;;23.10;57.10;;;;;;4446006;32;20090;-74
2022/09/02 00:25:43;;;;;;;5.88;1.48;;;23.10;57.10;;;;;;4460132;32;20101;-74
2022/09/02 00:28:10;;;;;;;4.03;1.25;;;23.10;57.10;;;;;;4460369;32;20103;-74
2022/09/02 00:30:37;;;;;;;4.00;1.10;;;23.10;57.10;;;;;;4459774;32;20211;-75
2022/09/02 00:33:04;;;;;;;2.47;0.75;;;23.10;57.10;;;;;;4461194;32;20534;-74
2022/09/02 00:35:30;;;;;;;3.92;1.00;;;23.10;57.10;;;;;;4462838;32;20541;-75
2022/09/02 00:37:56;;;;;;;4.60;1.30;;;23.10;57.10;;;;;;4463000;32;20128;-74
2022/09/02 00:40:22;;;;;;;2.70;1.10;;;23.10;57.10;;;;;;4463146;32;20590;-74
2022/09/02 00:42:49;;;;;;;4.25;1.30;;;23.10;57.10;;;;;;4462770;32;20086;-74
2022/09/02 00:45:17;;;;;;;3.97;1.10;;;23.10;57.10;;;;;;4462400;32;20230;-74
2022/09/02 00:47:44;;;;;;;2.20;0.93;;;23.10;57.10;;;;;;4462642;32;20187;-75
2022/09/02 00:50:13;;;;;;;4.05;1.02;;;23.10;57.10;;;;;;4462937;32;20490;-74
2022/09/02 00:52:46;;;;;;;3.65;1.10;;;23.10;57.20;;;;;;4462921;32;20171;-74
2022/09/02 00:55:31;;;;;;;3.40;1.15;;;23.10;57.10;;;;;;4462623;32;20081;-75
2022/09/02 00:58:19;;;;;;;3.13;1.00;;;23.10;57.00;;;;;;4462470;32;20093;-74
2022/09/02 01:00:47;;;;;;;3.20;1.02;;;23.10;57.00;;;;;;4462674;32;20113;-74
2022/09/02 01:03:19;;;;;;;3.53;1.10;;;23.10;57.10;;;;;;4462775;32;20508;-74
2022/09/02 01:05:48;;;;;;;2.38;0.95;;;23.00;57.00;;;;;;4448612;32;20204;-75
2022/09/02 01:08:21;;;;;;;4.07;1.25;;;23.00;57.10;;;;;;4462685;32;20069;-74
2022/09/02 01:10:48;;;;;;;2.72;0.85;;;23.00;57.00;;;;;;4462443;32;20231;-74
2022/09/02 01:13:19;;;;;;;1.85;0.90;;;23.00;57.00;;;;;;4462571;32;20073;-74
2022/09/02 01:15:52;;;;;;;1.63;0.70;;;23.00;57.10;;;;;;4462373;32;20084;-75
2022/09/02 01:18:22;;;;;;;;;;;23.00;57.00;;;;;;4462933;32;20069;-74
2022/09/02 01:20:47;;;;;;;4.22;0.95;;;23.00;57.10;;;;;;4462465;32;19974;-74
2022/09/02 01:23:15;;;;;;;1.63;0.75;;;23.00;57.10;;;;;;4462269;32;20070;-74
2022/09/02 01:25:42;;;;;;;2.38;0.75;;;23.00;57.10;;;;;;4462026;32;20192;-75
2022/09/02 01:28:12;;;;;;;3.40;1.27;;;23.00;57.00;;;;;;4462084;32;20519;-74
2022/09/02 01:30:44;;;;;;;2.38;0.93;;;23.00;57.10;;;;;;4462217;32;20415;-75
2022/09/02 01:33:10;;;;;;;3.72;1.20;;;23.00;57.10;;;;;;4462143;32;20089;-74
2022/09/02 01:35:37;;;;;;;2.55;1.08;;;23.00;57.10;;;;;;4462083;32;20534;-75
2022/09/02 01:38:03;;;;;;;2.13;0.95;;;23.00;57.10;;;;;;4462176;32;20077;-74
2022/09/02 01:40:31;;;;;;;2.03;0.70;;;23.00;57.10;;;;;;4461541;32;20077;-75
2022/09/02 01:43:05;;;;;;;2.72;1.13;;;23.00;57.00;;;;;;4462026;32;20129;-74
2022/09/02 01:45:32;;;;;;;3.83;1.00;;;23.00;57.00;;;;;;4461252;32;20070;-75
2022/09/02 01:47:58;;;;;;;2.25;0.82;;;22.90;57.00;;;;;;4462072;32;20086;-75
2022/09/02 01:50:23;;;;;;;3.22;0.70;;;22.90;57.00;;;;;;4461832;32;20076;-74
2022/09/02 01:52:49;;;;;;;3.05;0.70;;;22.90;57.00;;;;;;4461938;32;20066;-74
2022/09/02 01:55:15;;;;;;;2.25;0.70;;;22.90;57.00;;;;;;4461553;32;20176;-74
2022/09/02 01:57:41;;;;;;;2.75;0.77;;;22.90;57.00;;;;;;4461628;32;20160;-75
2022/09/02 02:00:09;;;;;;;2.95;1.23;;;22.90;56.90;;;;;;4461672;32;20074;-74
2022/09/02 02:02:35;;;;;;;2.22;1.00;;;22.90;57.00;;;;;;4461772;32;20100;-75
2022/09/02 02:05:01;;;;;;;2.33;0.90;;;22.90;57.00;;;;;;4461737;32;20127;-74
2022/09/02 02:07:27;;;;;;;2.63;1.00;;;22.90;56.90;;;;;;4461532;32;20218;-74
2022/09/02 02:09:53;;;;;;;1.75;0.60;;;22.90;56.90;;;;;;4461804;32;20196;-74
2022/09/02 02:12:19;;;;;;;1.88;0.70;;;22.90;57.00;;;;;;4461535;32;20070;-74
2022/09/02 02:14:46;;;;;;;1.08;0.70;;;22.90;56.90;;;;;;4461457;32;20567;-74
2022/09/02 02:17:12;;;;;;;1.80;0.80;;;22.90;56.90;;;;;;4461403;32;20084;-75
2022/09/02 02:19:38;;;;;;;1.35;0.43;;;22.90;56.90;;;;;;4461126;32;20411;-75
2022/09/02 02:22:04;;;;;;;0.80;0.50;;;22.90;56.90;;;;;;4461100;32;20085;-74
2022/09/02 02:24:30;;;;;;;2.55;0.90;;;22.90;56.90;;;;;;4461549;32;20066;-74
2022/09/02 02:26:56;;;;;;;1.52;0.82;;;22.90;56.90;;;;;;4461097;32;20443;-75
2022/09/02 02:29:22;;;;;;;3.13;0.82;;;22.90;56.90;;;;;;4461530;32;20140;-74
2022/09/02 02:31:48;;;;;;;2.35;0.90;;;22.90;56.90;;;;;;4461210;32;20105;-75
2022/09/02 02:34:14;;;;;;;1.67;0.63;;;22.90;56.90;;;;;;4460966;32;20626;-75
2022/09/02 02:36:41;;;;;;;2.03;0.80;;;22.90;56.90;;;;;;4460891;32;20069;-74
2022/09/02 02:39:09;;;;;;;1.63;0.60;;;22.90;57.00;;;;;;4461133;32;20085;-74
2022/09/02 02:41:36;;;;;;;1.42;0.70;;;22.80;56.90;;;;;;4460802;32;20595;-74
2022/09/02 02:44:03;;;;;;;1.40;0.70;;;22.80;56.90;;;;;;4460427;32;20086;-74
2022/09/02 02:46:30;;;;;;;2.33;0.80;;;22.80;56.90;;;;;;4460762;32;20098;-75
2022/09/02 02:48:58;;;;;;;0.93;0.65;;;22.80;56.90;;;;;;4461221;32;20110;-74
2022/09/02 02:51:24;;;;;;;1.38;0.70;;;22.80;56.90;;;;;;4460973;32;20082;-74
2022/09/02 02:53:50;;;;;;;1.08;0.70;;;22.80;56.90;;;;;;4460952;32;20069;-75
2022/09/02 02:56:16;;;;;;;1.88;0.70;;;22.80;56.80;;;;;;4460691;32;20061;-74
2022/09/02 02:58:42;;;;;;;1.92;0.90;;;22.80;56.80;;;;;;4460943;32;20101;-75
2022/09/02 03:01:08;;;;;;;1.52;0.60;;;22.80;56.90;;;;;;4460861;32;20078;-75
2022/09/02 03:03:35;;;;;;;1.75;0.60;;;22.80;56.80;;;;;;4447098;32;20446;-75
2022/09/02 03:06:01;;;;;;;1.92;0.80;;;22.80;56.90;;;;;;4460606;32;20240;-75
2022/09/02 03:08:27;;;;;;;2.03;0.70;;;22.80;56.90;;;;;;4461564;32;20081;-74
2022/09/02 03:10:55;;;;;;;2.55;0.70;;;22.80;56.90;;;;;;4461036;32;20163;-74
2022/09/02 03:13:22;;;;;;;1.73;0.50;;;22.80;56.90;;;;;;4460991;32;20074;-74
2022/09/02 03:15:49;;;;;;;1.13;0.50;;;22.80;56.90;;;;;;4461064;32;20097;-74
2022/09/02 03:18:16;;;;;;;1.77;0.60;;;22.80;56.80;;;;;;4460427;32;20100;-75
2022/09/02 03:20:42;;;;;;;1.40;0.52;;;22.70;56.80;;;;;;4460650;32;20084;-76
2022/09/02 03:23:08;;;;;;;1.15;0.60;;;22.70;56.80;;;;;;4460884;32;20094;-74
2022/09/02 03:25:34;;;;;;;2.03;0.57;;;22.80;56.90;;;;;;4460412;32;20069;-75
2022/09/02 03:28:01;;;;;;;1.13;0.50;;;22.70;56.80;;;;;;4460564;32;20086;-74
2022/09/02 03:30:29;;;;;;;2.20;0.80;;;22.70;56.70;;;;;;4460345;32;20608;-74
2022/09/02 03:32:58;;;;;;;2.55;0.68;;;22.70;56.80;;;;;;4460561;32;20318;-74
2022/09/02 03:35:25;;;;;;;2.17;0.68;;;22.70;56.80;;;;;;4460948;32;20086;-74
2022/09/02 03:37:51;;;;;;;1.10;0.60;;;22.70;56.80;;;;;;4460277;32;20081;-75
2022/09/02 03:40:21;;;;;;;0.80;0.50;;;22.70;56.80;;;;;;4460215;32;20074;-74
2022/09/02 03:42:48;;;;;;;1.48;0.60;;;22.70;56.70;;;;;;4460429;32;20228;-74
2022/09/02 03:45:14;;;;;;;1.77;0.65;;;22.70;56.80;;;;;;4459933;32;20074;-75
2022/09/02 03:47:49;;;;;;;1.83;0.65;;;22.70;56.70;;;;;;4460400;32;20511;-74
2022/09/02 03:50:17;;;;;;;2.20;0.63;;;22.70;56.80;;;;;;4460285;32;20070;-74
2022/09/02 03:52:42;;;;;;;1.92;0.55;;;22.70;56.80;;;;;;4460354;32;20089;-75
2022/09/02 03:55:09;;;;;;;1.83;0.65;;;22.70;56.80;;;;;;4446042;32;20108;-74
2022/09/02 03:57:35;;;;;;;2.83;0.60;;;22.60;56.70;;;;;;4460036;32;20069;-75
2022/09/02 04:00:06;;;;;;;2.08;0.60;;;22.60;56.70;;;;;;4460242;32;20508;-75
2022/09/02 04:02:32;;;;;;;1.70;0.65;;;22.60;56.70;;;;;;4460030;32;20074;-74
2022/09/02 04:04:58;;;;;;;1.40;0.52;;;22.60;56.70;;;;;;4460199;32;20084;-75
2022/09/02 04:07:24;;;;;;;1.23;0.57;;;22.60;56.70;;;;;;4460744;32;20077;-75
2022/09/02 04:09:50;;;;;;;1.02;0.60;;;22.60;56.80;;;;;;4463609;32;20078;-74
2022/09/02 04:12:15;;;;;;;1.08;0.45;;;22.60;56.70;;;;;;4463502;32;20106;-75
2022/09/02 04:14:41;;;;;;;0.70;0.50;;;22.60;56.80;;;;;;4463086;32;20395;-75
2022/09/02 04:17:08;;;;;;;1.77;0.40;;;22.60;56.70;;;;;;4463298;32;20208;-76
2022/09/02 04:19:34;;;;;;;1.75;0.40;;;22.60;56.70;;;;;;4448776;32;20072;-75
2022/09/02 04:21:59;;;;;;;1.58;0.60;;;22.60;56.80;;;;;;4463342;32;20187;-75
2022/09/02 04:24:25;;;;;;;1.10;0.50;;;22.60;56.70;;;;;;4462673;32;20122;-74
2022/09/02 04:26:51;;;;;;;1.40;0.50;;;22.60;56.80;;;;;;4463184;32;20223;-79
2022/09/02 04:29:17;;;;;;;0.95;0.43;;;22.60;56.70;;;;;;4463510;32;20065;-75
2022/09/02 04:31:43;;;;;;;1.45;0.50;;;22.60;56.70;;;;;;4462669;32;20090;-74
2022/09/02 04:34:09;;;;;;;0.70;0.47;;;22.60;56.80;;;;;;4463128;32;20373;-74
2022/09/02 04:36:35;;;;;;;2.47;0.55;;;22.60;56.80;;;;;;4462655;32;20077;-76
2022/09/02 04:39:01;;;;;;;1.17;0.60;;;22.60;56.80;;;;;;4463150;32;20151;-74
2022/09/02 04:41:29;;;;;;;1.60;0.38;;;22.60;56.80;;;;;;4462775;32;20128;-75
2022/09/02 04:43:56;;;;;;;0.88;0.50;;;22.60;56.80;;;;;;4462667;32;20082;-74
2022/09/02 04:46:23;;;;;;;0.93;0.30;;;22.60;56.80;;;;;;4462672;32;20140;-76
2022/09/02 04:48:50;;;;;;;0.90;0.40;;;22.60;56.80;;;;;;4463041;32;20159;-74
2022/09/02 04:51:21;;;;;;;1.80;0.60;;;22.50;56.70;;;;;;4462730;32;20637;-75
2022/09/02 04:53:49;;;;;;;1.13;0.50;;;22.50;56.70;;;;;;4462968;32;20128;-74
2022/09/02 04:56:20;;;;;;;1.50;0.45;;;22.50;56.70;;;;;;4462352;32;20098;-75
2022/09/02 04:58:46;;;;;;;0.52;0.22;;;22.50;56.70;;;;;;4462425;32;20620;-74
2022/09/02 05:01:15;;;;;;;0.43;0.30;;;22.50;56.80;;;;;;4462608;32;20637;-75
2022/09/02 05:03:42;;;;;;;1.00;0.40;;;22.50;56.70;;;;;;4448684;32;20140;-75
2022/09/02 05:06:10;;;;;;;1.42;0.30;;;22.50;56.70;;;;;;4448369;32;20089;-74
2022/09/02 05:08:36;;;;;;;1.27;0.50;;;22.50;56.70;;;;;;4462771;32;20585;-75
2022/09/02 05:11:06;;;;;;;1.00;0.52;;;22.50;56.70;;;;;;4462318;32;20082;-74
2022/09/02 05:13:34;;;;;;;0.60;0.30;;;22.50;56.70;;;;;;4462680;32;20495;-74
2022/09/02 05:16:00;;;;;;;1.75;0.50;;;22.50;56.70;;;;;;4462551;32;20073;-75
2022/09/02 05:18:27;;;;;;;1.55;0.60;;;22.50;56.70;;;;;;4462697;32;20240;-75
2022/09/02 05:20:53;;;;;;;0.70;0.47;;;22.50;56.70;;;;;;4462417;32;20082;-74
2022/09/02 05:23:19;;;;;;;0.40;0.35;;;22.50;56.70;;;;;;4448310;32;20127;-74
2022/09/02 05:25:45;;;;;;;0.82;0.50;;;22.50;56.70;;;;;;4462130;32;20070;-75
2022/09/02 05:28:10;;;;;;;1.58;0.47;;;22.50;56.70;;;;;;4461975;32;20069;-76
2022/09/02 05:30:39;;;;;;;0.60;0.38;;;22.50;56.70;;;;;;4462176;32;20214;-74
2022/09/02 05:33:05;;;;;;;1.27;0.30;;;22.50;56.70;;;;;;4462119;32;20519;-74
2022/09/02 05:35:32;;;;;;;1.85;0.50;;;22.40;56.70;;;;;;4461847;32;20085;-75
2022/09/02 05:37:58;;;;;;;0.90;0.40;;;22.40;56.70;;;;;;4447874;32;20085;-74
2022/09/02 05:40:24;;;;;;;0.70;0.40;;;22.40;56.70;;;;;;4462021;32;20208;-74
2022/09/02 05:42:51;;;;;;;1.00;0.30;;;22.40;56.70;;;;;;4461972;32;20423;-74
2022/09/02 05:45:17;;;;;;;1.30;0.40;;;22.40;56.70;;;;;;4447596;32;20089;-75
2022/09/02 05:47:43;;;;;;;0.50;0.30;;;22.40;56.70;;;;;;4461664;32;20074;-74
2022/09/02 05:50:09;;;;;;;0.80;0.43;;;22.40;56.70;;;;;;4461772;32;20160;-74
2022/09/02 05:52:35;;;;;;;1.10;0.30;;;22.40;56.70;;;;;;4461748;32;20092;-75
2022/09/02 05:55:02;;;;;;;0.63;0.40;;;22.40;56.70;;;;;;4461678;32;20096;-74
2022/09/02 05:57:28;;;;;;;1.67;0.50;;;22.40;56.70;;;;;;4461641;32;20078;-77
2022/09/02 05:59:55;;;;;;;0.80;0.40;;;22.40;56.70;;;;;;4461413;32;20065;-74
2022/09/02 06:02:23;;;;;;;0.70;0.40;;;22.40;56.70;;;;;;4461302;32;20094;-74
2022/09/02 06:04:52;;;;;;;0.60;0.40;;;22.40;56.70;;;;;;4461475;32;20554;-74
2022/09/02 06:07:20;;;;;;;0.70;0.52;;;22.40;56.70;;;;;;4461663;32;20065;-74
2022/09/02 06:09:47;;;;;;;0.57;0.40;;;22.40;56.70;;;;;;4461757;32;20553;-76
2022/09/02 06:12:14;;;;;;;0.65;0.50;;;22.40;56.70;;;;;;4461171;32;20074;-75
2022/09/02 06:14:40;;;;;;;0.63;0.45;;;22.40;56.70;;;;;;4461176;32;20423;-75
2022/09/02 06:17:06;;;;;;;0.47;0.25;;;22.40;56.70;;;;;;4461650;32;20168;-76
2022/09/02 06:19:34;;;;;;;0.90;0.30;;;22.40;56.70;;;;;;4461740;32;20147;-74
2022/09/02 06:22:01;;;;;;;1.45;0.65;;;22.40;56.70;;;;;;4461584;32;20070;-77
2022/09/02 06:24:29;;;;;;;0.52;0.25;;;22.40;56.70;;;;;;4461307;32;20132;-77
2022/09/02 06:26:56;;;;;;;2.05;0.40;;;22.40;56.80;;;;;;4447278;32;20231;-78
2022/09/02 06:29:24;;;;;;;1.15;0.55;;;22.50;56.70;;;;;;4461280;32;20081;-78
2022/09/02 06:31:50;;;;;;;2.42;0.50;;;22.50;56.50;;;;;;4460998;32;20133;-77
2022/09/02 06:34:19;;;;;;;2.35;0.52;;;22.50;56.40;;;;;;4461041;32;20110;-77
2022/09/02 06:36:47;;;;;;;1.90;0.40;;;22.50;56.30;;;;;;4461321;32;20191;-79
2022/09/02 06:39:16;;;;;;;1.75;0.50;;;22.50;56.10;;;;;;4461215;32;20090;-78
2022/09/02 06:41:43;;;;;;;2.65;0.63;;;22.60;56.10;;;;;;4461173;32;20078;-77
2022/09/02 06:44:11;;;;;;;1.60;0.50;;;22.60;56.20;;;;;;4460673;32;20073;-77
2022/09/02 06:46:41;;;;;;;1.95;0.60;;;22.60;56.20;;;;;;4461002;32;20085;-77
2022/09/02 06:49:08;;;;;;;1.98;0.60;;;22.60;56.10;;;;;;4446883;32;20093;-77
2022/09/02 06:51:37;;;;;;;1.08;0.50;;;22.60;55.80;;;;;;4461015;32;20105;-77
2022/09/02 06:54:05;;;;;;;2.70;0.70;;;22.70;55.70;;;;;;4461235;32;20074;-77
2022/09/02 06:56:32;;;;;;;3.20;0.50;;;22.60;55.50;;;;;;4446901;32;20121;-77
2022/09/02 06:58:58;;;;;;;1.67;0.55;;;22.70;55.50;;;;;;4461136;32;20089;-77
2022/09/02 07:01:27;;;;;;;1.92;0.50;;;22.70;55.40;;;;;;4460957;32;20080;-77
2022/09/02 07:06:40;;;;;;;2.40;0.57;;;22.80;55.40;;;;;;4461109;32;20492;-77
2022/09/02 07:09:08;;;;;;;0.93;0.60;;;22.80;55.30;;;;;;4460527;32;20798;-78
2022/09/02 07:11:34;;;;;;;1.13;0.60;;;22.80;55.30;;;;;;4460799;32;20100;-77
2022/09/02 07:14:01;;;;;;;0.75;0.40;;;22.80;55.20;;;;;;4460793;32;20231;-77
2022/09/02 07:16:33;;;;;;;1.02;0.50;;;22.80;55.10;;;;;;4446591;32;20117;-77
2022/09/02 07:19:00;;;;;;;5.38;0.93;;;22.90;55.00;;;;;;4460748;32;20081;-77
2022/09/02 07:21:28;;;;;;;1.80;0.47;;;22.90;55.10;;;;;;4460599;32;20140;-76
2022/09/02 07:23:55;;;;;;;1.63;0.80;;;22.90;55.00;;;;;;4460765;32;20187;-76
2022/09/02 07:26:21;;;;;;;1.80;0.60;;;22.90;55.00;;;;;;4460528;32;20089;-77
2022/09/02 07:28:46;;;;;;;1.60;0.70;;;22.90;55.00;;;;;;4460391;32;20124;-77
2022/09/02 07:31:15;;;;;;;1.60;0.60;;;22.90;55.00;;;;;;4460943;32;20508;-78
2022/09/02 07:33:41;;;;;;;1.25;0.57;;;22.90;54.90;;;;;;4460317;32;20428;-80
2022/09/02 07:36:09;;;;;;;3.08;0.77;;;22.90;54.70;;;;;;4460549;32;20120;-79
2022/09/02 07:38:35;;;;;;;1.10;0.43;;;23.00;54.70;;;;;;4460554;32;20279;-78
2022/09/02 07:41:01;;;;;;;3.55;0.68;;;23.00;54.80;;;;;;4446491;32;20495;-77
2022/09/02 07:43:30;;;;;;;4.45;0.60;;;23.00;54.80;;;;;;4462446;32;20503;-78
2022/09/02 07:45:56;;;;;;;3.65;0.60;;;23.00;54.90;;;;;;4463754;32;20062;-77
2022/09/02 07:48:24;;;;;;;3.13;0.75;;;23.00;54.80;;;;;;4463725;32;20094;-78
2022/09/02 07:50:50;;;;;;;1.98;0.60;;;23.10;54.70;;;;;;4463624;32;20092;-77
2022/09/02 07:53:17;;;;;;;2.83;0.65;;;23.10;54.60;;;;;;4463284;32;20074;-78
2022/09/02 07:55:44;;;;;;;1.35;0.70;;;23.10;54.70;;;;;;4463767;32;20066;-76
2022/09/02 07:58:11;;;;;;;1.58;0.60;;;23.10;54.60;;;;;;4463806;32;20101;-74
2022/09/02 08:00:38;;;;;;;2.30;0.85;;;23.20;54.70;;;;;;4463468;32;20106;-74
2022/09/02 08:03:05;;;;;;;4.22;0.60;;;23.20;54.60;;;;;;4463478;32;20644;-76
2022/09/02 08:05:32;;;;;;;1.58;0.43;;;23.20;54.60;;;;;;4463655;32;20086;-76
2022/09/02 08:07:59;;;;;;;3.53;0.90;;;23.30;54.60;;;;;;4463330;32;20463;-77
2022/09/02 08:10:27;;;;;;;3.25;0.68;;;23.30;54.50;;;;;;4463439;32;20090;-77
2022/09/02 08:12:54;;;;;;;5.68;0.80;;;23.30;54.50;;;;;;4463594;32;20092;-76
2022/09/02 08:15:21;;;;;;;1.30;0.52;;;23.30;54.30;;;;;;4463370;32;20077;-79
2022/09/02 08:17:47;;;;;;;1.58;0.50;;;23.30;54.20;;;;;;4463049;32;20215;-77
2022/09/02 08:20:16;;;;;;;2.67;0.70;;;23.40;54.20;;;;;;4463237;32;20096;-77
2022/09/02 08:22:43;;;;;;;3.22;0.73;;;23.40;54.10;;;;;;4463149;32;20100;-76
2022/09/02 08:25:09;;;;;;;0.90;0.38;;;23.40;54.10;;;;;;4462779;32;20069;-77
2022/09/02 08:27:36;;;;;;;1.75;0.70;;;23.40;54.00;;;;;;4463102;32;20081;-75
2022/09/02 08:30:04;;;;;;;3.17;0.50;;;23.40;54.00;;;;;;4463252;32;20085;-77
2022/09/02 08:32:31;;;;;;;0.98;0.60;;;23.50;53.80;;;;;;4463170;32;20070;-77
2022/09/02 08:35:01;;;;;;;1.73;0.60;;;23.50;53.80;;;;;;4462894;32;20183;-76
2022/09/02 08:37:28;;;;;;;3.95;0.70;;;23.50;53.70;;;;;;4462718;32;20120;-76
2022/09/02 08:39:54;;;;;;;2.20;0.90;;;23.50;53.60;;;;;;4462883;32;20096;-77
2022/09/02 08:42:31;;;;;;;2.50;0.60;;;23.60;53.60;;;;;;4462548;32;20175;-76
2022/09/02 08:45:11;;;;;;;1.95;0.57;;;23.60;53.60;;;;;;4462737;32;20106;-73
2022/09/02 08:47:39;;;;;;;3.60;0.50;;;23.60;53.50;;;;;;4463173;32;20259;-74
2022/09/02 08:50:13;;;;;;;1.67;0.55;;;23.60;53.50;;;;;;4462923;32;20519;-76
2022/09/02 08:52:54;;;;;;;3.15;0.85;;;23.60;53.40;;;;;;4463147;32;20061;-78
2022/09/02 08:55:25;;;;;;;4.32;0.70;;;23.60;53.30;;;;;;4463017;32;20080;-77
2022/09/02 08:57:55;;;;;;;2.28;0.65;;;23.70;53.20;;;;;;4462849;32;20070;-77
2022/09/02 09:00:21;;;;;;;0.95;0.60;;;23.60;53.00;;;;;;4462853;32;20089;-74
2022/09/02 09:02:48;;;;;;;4.03;0.70;;;23.70;52.90;;;;;;4462687;32;20542;-75
2022/09/02 09:05:48;;;;;;;3.28;0.70;;;23.70;52.90;;;;;;4448366;32;20070;-75
2022/09/02 09:08:48;;;;;;;1.27;0.60;;;23.70;52.80;;;;;;4462612;32;20202;-77
2022/09/02 09:11:35;;;;;;;4.35;0.90;;;23.70;52.70;;;;;;4462756;32;20629;-76
2022/09/02 09:14:32;;;;;;;3.55;0.80;;;23.80;52.60;;;;;;4462723;32;20081;-77
2022/09/02 09:17:02;;;;;;;3.88;0.40;;;23.80;52.60;;;;;;4463263;32;20207;-77
2022/09/02 09:19:37;;;;;;;4.32;1.05;;;23.80;52.50;;;;;;4462888;32;20097;-76
2022/09/02 09:22:04;;;;;;;2.30;0.60;;;23.80;52.30;;;;;;4462217;32;20527;-76
2022/09/02 09:24:38;;;;;;;2.22;0.60;;;23.80;52.30;;;;;;4462486;32;20086;-76
2022/09/02 09:27:10;;;;;;;1.63;0.63;;;23.80;52.20;;;;;;4462413;32;20082;-75
2022/09/02 09:29:35;;;;;;;3.15;0.60;;;23.80;52.30;;;;;;4462823;32;20127;-76
2022/09/02 09:32:02;;;;;;;2.10;0.52;;;23.80;52.40;;;;;;4448429;32;20074;-77
2022/09/02 09:34:55;;;;;;;3.20;0.70;;;23.80;52.30;;;;;;4462494;32;20104;-78
2022/09/02 09:37:43;;;;;;;2.28;0.60;;;23.90;52.20;;;;;;4462153;32;20215;-75
2022/09/02 09:40:20;;;;;;;1.90;0.55;;;23.90;52.00;;;;;;4462521;32;20084;-71
2022/09/02 09:42:49;;;;;;;1.27;0.60;;;23.90;52.00;;;;;;4462404;32;20092;-74
2022/09/02 09:45:27;;;;;;;1.65;0.57;;;23.90;51.90;;;;;;4462254;32;20125;-80
2022/09/02 09:48:26;;;;;;;4.15;0.60;;;24.00;51.70;;;;;;4461759;32;20080;-73
2022/09/02 09:50:55;;;;;;;2.22;0.75;;;24.00;51.60;;;;;;4450270;32;20090;-74
2022/09/02 09:53:21;;;;;;;3.72;0.70;;;24.00;51.60;;;;;;4462249;32;20082;-74
2022/09/02 09:55:57;;;;;;;1.95;0.60;;;24.00;51.40;;;;;;4462065;32;20101;-75
2022/09/02 09:58:34;;;;;;;2.97;0.80;;;24.00;51.30;;;;;;4461696;32;20077;-74
2022/09/02 10:01:20;;;;;;;2.67;0.70;;;24.00;51.30;;;;;;4462011;32;20100;-74
2022/09/02 10:04:07;;;;;;;1.48;0.52;;;24.00;51.00;;;;;;4461947;32;20207;-74
2022/09/02 10:06:33;;;;;;;1.73;0.70;;;24.00;50.80;;;;;;4461431;32;20084;-74
2022/09/02 10:09:01;;;;;;;4.20;0.80;;;24.00;50.90;;;;;;4462195;32;20062;-72
2022/09/02 10:11:36;;;;;;;1.88;0.60;;;24.10;50.90;;;;;;4461665;32;20585;-72
2022/09/02 10:14:04;;;;;;;1.80;0.68;;;24.10;50.70;;;;;;4462379;32;20088;-74
2022/09/02 10:16:57;;;;;;;1.60;0.70;;;24.10;50.70;;;;;;4461299;32;20098;-74
2022/09/02 10:19:28;;;;;;;5.50;0.80;;;24.10;50.60;;;;;;4461871;32;20074;-73
2022/09/02 10:22:15;;;;;;;1.40;0.60;;;24.10;50.70;;;;;;4461833;32;20173;-74
2022/09/02 10:24:59;;;;;;;4.00;0.80;;;24.10;50.60;;;;;;4461775;32;20082;-74
2022/09/02 10:27:36;;;;;;;1.67;0.83;;;24.10;50.60;;;;;;4461821;32;20101;-75
2022/09/02 10:30:08;;;;;;;2.42;0.65;;;24.10;50.60;;;;;;4461491;32;20196;-74
2022/09/02 10:33:07;;;;;;;3.03;0.75;;;24.10;50.60;;;;;;4447286;32;20088;-73
2022/09/02 10:35:43;;;;;;;3.10;0.73;;;24.10;50.50;;;;;;4461761;32;20066;-74
2022/09/02 10:38:35;;;;;;;1.23;0.70;;;24.10;50.40;;;;;;4461254;32;20073;-73
2022/09/02 10:41:22;;;;;;;2.50;0.82;;;24.20;50.40;;;;;;4453372;32;20078;-73
2022/09/02 10:44:14;;;;;;;1.23;0.70;;;24.20;50.30;;;;;;4461355;32;20082;-73
2022/09/02 10:46:49;;;;;;;1.95;0.80;;;24.20;50.20;;;;;;4461381;32;20143;-72
2022/09/02 10:50:00;;;;;;;2.83;0.65;;;24.20;50.20;;;;;;4461196;32;20516;-73
2022/09/02 10:52:46;;;;;;;4.63;0.80;;;24.20;49.80;;;;;;4437009;32;20207;-73
2022/09/02 10:55:31;;;;;;;3.80;0.80;;;24.20;49.70;;;;;;4461534;32;20190;-70
2022/09/02 10:58:10;;;;;;;2.97;0.75;;;24.20;49.50;;;;;;4461120;32;20132;-70
2022/09/02 11:00:40;;;;;;;7.47;1.00;;;24.20;49.60;;;;;;4461467;32;20219;-68
2022/09/02 11:03:12;;;;;;;2.00;0.80;;;24.20;50.60;;;;;;4460780;32;20096;-73
2022/09/02 11:05:38;;;;;;;4.95;0.93;;;24.20;50.00;;;;;;4461330;32;20616;-74
2022/09/02 11:08:18;;;;;;;1.80;0.98;;;24.20;50.10;;;;;;4460756;32;20073;-74
2022/09/02 11:11:13;;;;;;;3.40;0.82;;;24.20;50.10;;;;;;4461142;32;20096;-73
2022/09/02 11:13:51;;;;;;;15.05;1.02;;;24.20;49.80;;;;;;4461410;32;20058;-74
2022/09/02 11:16:38;;;;;;;3.60;1.10;;;24.20;49.80;;;;;;4460959;32;20514;-74
2022/09/02 11:19:04;;;;;;;5.65;1.00;;;24.20;50.30;;;;;;4460567;32;20488;-73
2022/09/02 11:21:48;;;;;;;4.78;1.20;;;24.20;49.90;;;;;;4461333;32;20088;-75
2022/09/02 11:24:22;;;;;;;;;;;24.20;49.90;;;;;;4461568;32;20227;-76
2022/09/02 11:26:59;;;;;;;2.25;0.77;;;24.20;49.20;;;;;;4460653;32;19986;-75
2022/09/02 11:29:56;;;;;;;4.18;1.00;;;24.20;49.20;;;;;;4460928;32;20088;-76
2022/09/02 11:32:35;;;;;;;3.55;0.80;;;24.20;49.20;;;;;;4461072;32;20086;-76
2022/09/02 11:35:08;;;;;;;2.35;0.90;;;24.20;49.20;;;;;;4460725;32;20074;-76
2022/09/02 11:37:45;;;;;;;2.35;0.90;;;24.20;49.10;;;;;;4446793;32;20422;-74
2022/09/02 11:40:11;;;;;;;5.50;1.15;;;24.20;49.00;;;;;;4460657;32;20062;-78
2022/09/02 11:42:53;;;;;;;2.35;0.93;;;24.30;48.90;;;;;;4460691;32;20424;-76
2022/09/02 11:45:40;;;;;;;3.17;0.70;;;24.30;48.90;;;;;;4460192;32;20096;-74
2022/09/02 11:48:43;;;;;;;4.75;1.15;;;24.30;48.60;;;;;;4460318;32;20085;-75
2022/09/02 11:51:30;;;;;;;4.45;0.90;;;24.30;48.50;;;;;;4460809;32;20081;-77
2022/09/02 11:54:02;;;;;;;5.03;0.90;;;24.30;48.20;;;;;;4446750;32;20089;-77
2022/09/02 11:56:35;;;;;;;5.80;1.00;;;24.30;48.50;;;;;;4446142;32;20149;-77
2022/09/02 11:59:02;;;;;;;;;;;24.30;48.40;;;;;;4461434;32;20231;-76
2022/09/02 12:01:46;;;;;;;2.00;0.77;;;24.30;48.30;;;;;;4460503;32;20120;-75
2022/09/02 12:04:12;;;;;;;1.80;0.80;;;24.30;48.30;;;;;;4460518;32;20478;-78
2022/09/02 12:07:00;;;;;;;4.40;0.95;;;24.30;48.20;;;;;;4460286;32;20155;-75
2022/09/02 12:09:42;;;;;;;5.50;1.00;;;24.30;48.00;;;;;;4446123;32;20508;-76
2022/09/02 12:12:09;;;;;;;3.22;0.80;;;24.40;48.00;;;;;;4460842;32;20419;-75
2022/09/02 12:14:46;;;;;;;1.92;0.80;;;24.40;48.20;;;;;;4446038;32;20074;-74
2022/09/02 12:17:36;;;;;;;1.88;0.85;;;24.40;48.60;;;;;;4460063;32;20192;-73
2022/09/02 12:20:02;;;;;;;2.50;1.02;;;24.40;48.10;;;;;;4460765;32;20164;-74
2022/09/02 12:22:37;;;;;;;1.60;0.77;;;24.40;48.50;;;;;;4460365;32;20170;-73
2022/09/02 12:25:23;;;;;;;3.17;0.73;;;24.40;48.30;;;;;;4460213;32;20090;-73
2022/09/02 12:27:50;;;;;;;2.53;0.70;;;24.40;48.40;;;;;;4459418;32;20230;-74
2022/09/02 12:30:54;;;;;;;1.50;0.70;;;24.40;48.40;;;;;;4463011;32;20066;-80
2022/09/02 12:33:41;;;;;;;2.40;0.85;;;24.40;48.20;;;;;;4463027;32;20085;-74
2022/09/02 12:36:09;;;;;;;2.47;0.90;;;24.40;48.20;;;;;;4449054;32;20517;-75
2022/09/02 12:38:37;;;;;;;4.75;1.00;;;24.40;48.20;;;;;;4463161;32;20407;-73
2022/09/02 12:41:03;;;;;;;2.25;0.80;;;24.40;48.20;;;;;;4462726;32;20100;-74
2022/09/02 12:43:41;;;;;;;3.75;1.00;;;24.40;48.10;;;;;;4463099;32;20069;-74
2022/09/02 12:46:30;;;;;;;3.67;0.80;;;24.40;48.00;;;;;;4448523;32;20125;-74
2022/09/02 12:49:28;;;;;;;1.75;0.80;;;24.40;47.80;;;;;;4462667;32;20112;-74
2022/09/02 12:52:01;;;;;;;2.75;0.82;;;24.40;47.80;;;;;;4462464;32;20097;-74
2022/09/02 12:54:47;;;;;;;3.50;0.75;;;24.50;48.20;;;;;;4448897;32;20204;-74
2022/09/02 12:57:18;;;;;;;2.42;0.80;;;24.50;48.10;;;;;;4448675;32;20066;-74
2022/09/02 12:59:46;;;;;;;1.65;0.80;;;24.50;48.20;;;;;;4462837;32;20070;-75
2022/09/02 13:02:33;;;;;;;4.43;1.00;;;24.50;48.00;;;;;;4462633;32;20381;-75
2022/09/02 13:05:25;;;;;;;2.25;0.98;;;24.50;48.10;;;;;;4462251;32;20136;-75
2022/09/02 13:08:00;;;;;;;3.85;0.60;;;24.50;48.10;;;;;;4463071;32;20069;-79
2022/09/02 13:10:53;;;;;;;2.35;0.77;;;24.60;48.10;;;;;;4462373;32;20138;-75